Time;durP1;ratioP1;P1;durP2;ratioP2;P2;SDS_P1;SDS_P2;PMS_P1;PMS_P2;Temp;Humidity;BMP_temperature;BMP_pressure;BME280_temperature;BME280_humidity;BME280_pressure;Samples;Min_cycle;Max_cycle;Signal;HPM_P1;HPM_P2
2023/09/22 00:02:26;;;;;;;4.50;1.80;;;;;;;23.25;46.00;98933.34;7553451;33;37880;-81
2023/09/22 00:06:43;;;;;;;5.10;1.70;;;;;;;22.98;46.65;98929.78;7553338;33;37978;-81
2023/09/22 00:10:59;;;;;;;6.80;1.92;;;;;;;22.44;48.09;98938.12;7553111;33;39541;-81
2023/09/22 00:15:15;;;;;;;8.43;2.28;;;;;;;22.93;47.03;98933.66;7553369;33;40828;-81
2023/09/22 00:19:32;;;;;;;6.28;2.12;;;;;;;23.02;46.78;98931.41;7553141;33;37944;-81
2023/09/22 00:23:48;;;;;;;4.68;1.90;;;;;;;22.72;47.60;98928.63;7553068;33;37744;-81
2023/09/22 00:28:06;;;;;;;7.43;2.28;;;;;;;22.31;48.71;98926.37;7552983;33;40076;-81
2023/09/22 00:32:23;;;;;;;4.93;1.75;;;;;;;22.79;47.53;98925.16;7552394;33;40788;-81
2023/09/22 00:36:39;;;;;;;4.60;1.90;;;;;;;22.62;48.00;98930.06;7555344;33;37288;-81
2023/09/22 00:40:55;;;;;;;6.87;2.53;;;;;;;22.62;48.04;98940.38;7556194;33;37034;-81
2023/09/22 00:45:14;;;;;;;8.75;2.60;;;;;;;22.99;47.00;98920.25;7556250;33;40199;-81
2023/09/22 00:49:31;;;;;;;7.05;2.15;;;;;;;22.69;47.83;98918.25;7556071;33;40034;-81
2023/09/22 00:53:48;;;;;;;7.60;2.35;;;;;;;22.72;47.80;98920.28;7555613;33;38622;-81
2023/09/22 00:58:06;;;;;;;6.62;2.33;;;;;;;22.81;47.57;98915.25;7555868;33;36830;-81
2023/09/22 01:02:23;;;;;;;5.62;1.58;;;;;;;21.98;49.64;98920.66;7555639;33;40170;-81
2023/09/22 01:06:43;;;;;;;6.37;2.08;;;;;;;22.32;48.83;98921.66;7555642;33;39898;-81
2023/09/22 01:11:01;;;;;;;5.72;2.30;;;;;;;22.31;48.97;98920.84;7555733;33;37734;-81
2023/09/22 01:15:18;;;;;;;5.47;2.10;;;;;;;22.43;48.69;98911.50;7555472;33;36066;-81
2023/09/22 01:19:35;;;;;;;9.10;2.15;;;;;;;22.42;48.85;98909.94;7555730;33;40182;-81
2023/09/22 01:23:52;;;;;;;7.68;2.47;;;;;;;22.38;49.01;98925.72;7555591;33;39927;-81
2023/09/22 01:28:10;;;;;;;4.22;2.00;;;;;;;22.11;49.94;98925.66;7555402;33;38740;-81
2023/09/22 01:32:26;;;;;;;9.65;3.00;;;;;;;22.10;50.01;98921.25;7554004;33;38071;-81
2023/09/22 01:36:42;;;;;;;7.43;2.80;;;;;;;22.07;50.84;98908.12;7555242;33;39327;-81
2023/09/22 01:40:59;;;;;;;7.97;2.80;;;;;;;21.97;51.52;98922.59;7555700;33;40616;-81
2023/09/22 01:45:15;;;;;;;7.72;2.92;;;;;;;21.58;52.79;98906.06;7554441;33;37715;-81
2023/09/22 01:49:32;;;;;;;6.75;2.78;;;;;;;21.66;52.51;98918.91;7555415;33;37064;-81
2023/09/22 01:53:55;;;;;;;8.40;3.12;;;;;;;21.56;52.87;98914.75;7553739;33;37721;-81
2023/09/22 01:58:11;;;;;;;12.37;3.17;;;;;;;21.35;53.49;98926.19;7554886;33;39722;-81
2023/09/22 02:02:28;;;;;;;8.50;3.45;;;;;;;20.99;54.72;98914.38;7554931;33;37947;-81
2023/09/22 02:06:49;;;;;;;10.20;3.17;;;;;;;21.26;54.19;98920.06;7554989;33;37254;-81
2023/09/22 02:11:05;;;;;;;7.03;3.03;;;;;;;21.30;54.02;98915.41;7555017;33;39321;-82
2023/09/22 02:15:29;;;;;;;8.23;2.95;;;;;;;21.19;54.58;98911.59;7554426;33;40511;-81
2023/09/22 02:19:46;;;;;;;9.60;3.35;;;;;;;20.92;54.76;98911.44;7554973;33;37855;-81
2023/09/22 02:24:03;;;;;;;9.48;2.75;;;;;;;20.49;56.49;98924.28;7554958;33;35387;-82
2023/09/22 02:28:19;;;;;;;7.55;3.00;;;;;;;21.14;54.32;98896.06;7554923;33;40631;-82
2023/09/22 02:32:40;;;;;;;10.57;3.33;;;;;;;21.08;55.08;98910.59;7554758;33;39952;-82
2023/09/22 02:36:58;;;;;;;10.02;2.83;;;;;;;20.58;56.58;98904.72;7554512;33;38713;-82
2023/09/22 02:41:15;;;;;;;6.97;2.70;;;;;;;20.57;56.65;98909.44;7554669;33;35048;-82
2023/09/22 02:45:31;;;;;;;10.30;3.30;;;;;;;20.55;56.66;98914.53;7554785;33;39198;-81
2023/09/22 02:49:48;;;;;;;6.43;2.80;;;;;;;20.71;56.07;98914.53;7554740;33;39890;-82
2023/09/22 02:54:04;;;;;;;8.55;3.30;;;;;;;20.89;55.86;98903.84;7554208;33;37850;-81
2023/09/22 02:58:23;;;;;;;9.32;3.42;;;;;;;20.90;56.18;98907.41;7553893;33;37291;-82
2023/09/22 03:02:39;;;;;;;8.05;3.20;;;;;;;20.70;57.03;98904.63;7554668;33;38561;-81
2023/09/22 03:07:14;;;;;;;11.05;4.05;;;;;;;20.61;57.72;98899.25;7553799;33;40211;-81
2023/09/22 03:11:30;;;;;;;7.22;3.47;;;;;;;20.35;58.74;98896.25;7554353;33;38576;-81
2023/09/22 03:15:50;;;;;;;12.63;3.92;;;;;;;20.43;58.64;98906.34;7554434;33;37191;-81
2023/09/22 03:20:07;;;;;;;12.52;4.12;;;;;;;20.39;58.88;98897.94;7554374;33;40201;-81
2023/09/22 03:24:24;;;;;;;11.88;3.58;;;;;;;20.32;59.25;98903.31;7527160;33;40870;-81
2023/09/22 03:28:41;;;;;;;11.95;3.87;;;;;;;20.08;60.00;98896.03;7528614;33;37634;-81
2023/09/22 03:32:58;;;;;;;12.43;4.07;;;;;;;20.13;60.20;98892.16;7546169;33;37167;-81
2023/09/22 03:37:15;;;;;;;11.12;3.78;;;;;;;20.01;60.82;98895.84;7553952;33;40293;-82
2023/09/22 03:41:31;;;;;;;9.82;3.72;;;;;;;19.84;61.35;98897.00;7554017;33;40678;-81
2023/09/22 03:45:53;;;;;;;9.07;4.00;;;;;;;19.98;61.13;98897.34;7553805;33;37886;-81
2023/09/22 03:50:10;;;;;;;10.63;4.00;;;;;;;19.88;61.54;98895.91;7554002;33;36845;-81
2023/09/22 03:54:27;;;;;;;10.23;3.92;;;;;;;19.82;61.81;98891.81;7553566;33;40193;-81
2023/09/22 03:58:45;;;;;;;9.50;3.55;;;;;;;19.89;61.62;98897.53;7553607;33;40911;-81
2023/09/22 04:03:02;;;;;;;10.43;3.83;;;;;;;19.91;61.37;98883.34;7553178;33;37838;-81
2023/09/22 04:07:18;;;;;;;10.73;3.62;;;;;;;19.84;61.70;98895.03;7553816;33;37253;-81
2023/09/22 04:11:35;;;;;;;9.43;4.28;;;;;;;19.69;62.25;98885.50;7552665;33;39431;-81
2023/09/22 04:15:59;;;;;;;9.80;4.05;;;;;;;19.81;61.94;98884.66;7553069;33;40622;-81
2023/09/22 04:20:26;;;;;;;12.10;4.15;;;;;;;19.88;61.73;98895.91;7540040;33;37752;-81
2023/09/22 04:24:47;;;;;;;9.93;3.95;;;;;;;19.76;62.10;98893.22;7553144;33;37455;-82
2023/09/22 04:29:05;;;;;;;7.70;3.50;;;;;;;19.81;62.13;98892.97;7552887;33;39345;-82
2023/09/22 04:33:21;;;;;;;11.00;3.85;;;;;;;19.71;62.57;98907.28;7552847;33;39675;-81
2023/09/22 04:37:40;;;;;;;10.43;3.85;;;;;;;19.80;62.55;98898.84;7552673;33;37895;-82
2023/09/22 04:41:56;;;;;;;10.23;3.55;;;;;;;19.62;63.25;98907.44;7552678;33;37053;-81
2023/09/22 04:46:13;;;;;;;9.40;3.33;;;;;;;19.76;62.84;98920.88;7552656;33;40060;-81
2023/09/22 04:50:29;;;;;;;12.70;3.85;;;;;;;19.74;62.78;98914.06;7552465;33;40683;-81
2023/09/22 04:54:46;;;;;;;8.57;3.78;;;;;;;19.83;62.34;98914.72;7551880;33;37879;-81
2023/09/22 04:59:03;;;;;;;7.85;3.35;;;;;;;20.02;61.76;98916.78;7552233;33;37843;-81
2023/09/22 05:03:20;;;;;;;8.50;3.53;;;;;;;19.95;61.90;98916.63;7551932;33;39355;-81
2023/09/22 05:07:36;;;;;;;8.80;3.47;;;;;;;20.04;61.25;98917.25;7552026;33;40073;-81
2023/09/22 05:11:55;;;;;;;10.13;4.15;;;;;;;20.01;61.25;98926.28;7552033;33;36873;-81
2023/09/22 05:16:14;;;;;;;11.75;4.18;;;;;;;19.92;61.77;98934.75;7551833;33;36976;-81
2023/09/22 05:20:32;;;;;;;8.57;3.95;;;;;;;20.26;60.85;98918.59;7552983;33;39349;-81
2023/09/22 05:24:48;;;;;;;10.45;3.90;;;;;;;20.23;61.12;98922.88;7554230;33;40680;-81
2023/09/22 05:29:06;;;;;;;9.82;3.95;;;;;;;20.32;60.88;98930.22;7555552;33;38171;-81
2023/09/22 05:33:22;;;;;;;8.65;3.72;;;;;;;20.27;61.20;98922.97;7555585;33;37081;-81
2023/09/22 05:37:39;;;;;;;12.85;4.28;;;;;;;20.11;61.71;98930.44;7555522;33;40009;-81
2023/09/22 05:41:55;;;;;;;11.85;4.28;;;;;;;20.31;61.35;98923.06;7555522;33;39863;-81
2023/09/22 05:46:11;;;;;;;8.75;3.85;;;;;;;20.29;61.67;98926.19;7554875;33;37627;-81
2023/09/22 05:50:28;;;;;;;12.85;3.75;;;;;;;20.50;61.16;98920.34;7555414;33;36969;-80
2023/09/22 05:54:47;;;;;;;11.30;4.10;;;;;;;20.51;61.19;98927.50;7555225;33;39282;-81
2023/09/22 05:59:04;;;;;;;8.10;3.83;;;;;;;20.59;61.04;98923.75;7554141;33;39918;-81
2023/09/22 06:03:21;;;;;;;7.07;3.90;;;;;;;20.48;61.30;98922.69;7554738;33;37869;-80
2023/09/22 06:07:38;;;;;;;9.82;4.28;;;;;;;20.60;61.18;98930.88;7555161;33;35539;-81
2023/09/22 06:11:54;;;;;;;10.70;4.03;;;;;;;20.92;60.58;98933.59;7555111;33;40247;-81
2023/09/22 06:16:10;;;;;;;15.40;4.70;;;;;;;21.10;60.06;98933.97;7554898;33;39933;-82
2023/09/22 06:20:27;;;;;;;9.70;4.12;;;;;;;21.09;60.14;98945.44;7541692;33;37752;-82
2023/09/22 06:24:43;;;;;;;10.95;4.05;;;;;;;21.18;59.74;98943.28;7554605;33;36913;-82
2023/09/22 06:29:00;;;;;;;10.75;4.10;;;;;;;21.28;59.72;98959.28;7554800;33;39490;-81
2023/09/22 06:33:17;;;;;;;8.98;3.60;;;;;;;21.55;59.06;98956.72;7553899;33;40795;-82
2023/09/22 06:37:33;;;;;;;10.57;4.03;;;;;;;21.78;58.41;98964.28;7554675;33;37684;-76
2023/09/22 06:41:50;;;;;;;13.05;4.57;;;;;;;21.93;57.99;98963.38;7553840;33;36515;-79
2023/09/22 06:46:06;;;;;;;15.52;3.62;;;;;;;21.94;58.03;98962.22;7553868;33;40208;-75
2023/09/22 06:50:24;;;;;;;10.43;3.80;;;;;;;22.33;57.02;98964.91;7550156;33;40867;-69
2023/09/22 06:54:40;;;;;;;9.55;3.92;;;;;;;22.46;56.67;98963.53;7553924;33;37977;-82
2023/09/22 06:58:56;;;;;;;15.88;3.90;;;;;;;22.66;56.10;98960.66;7554089;33;37079;-82
2023/09/22 07:03:13;;;;;;;8.73;3.65;;;;;;;23.12;55.00;98968.91;7554012;33;39311;-82
2023/09/22 07:07:30;;;;;;;11.40;3.78;;;;;;;23.38;54.77;98981.16;7529877;33;39678;-81
2023/09/22 07:11:47;;;;;;;9.02;3.60;;;;;;;23.72;53.72;98972.84;7553598;33;38743;-80
2023/09/22 07:16:05;;;;;;;11.00;3.65;;;;;;;23.50;53.83;98980.91;7553502;33;37849;-79
2023/09/22 07:20:24;;;;;;;10.60;3.42;;;;;;;23.99;52.64;98981.88;7553919;33;39339;-81
2023/09/22 07:24:42;;;;;;;9.35;3.55;;;;;;;24.11;52.04;98984.41;7531902;33;40515;-81
2023/09/22 07:28:59;;;;;;;10.18;3.95;;;;;;;24.42;51.40;98987.84;7553755;33;37889;-81
2023/09/22 07:33:15;;;;;;;11.15;3.15;;;;;;;24.68;51.28;98978.56;7553588;33;36937;-83
2023/09/22 07:37:32;;;;;;;6.60;3.40;;;;;;;25.09;49.90;98978.44;7553011;33;40086;-79
2023/09/22 07:41:49;;;;;;;12.43;3.33;;;;;;;25.31;49.52;98981.38;7552799;33;40071;-71
2023/09/22 07:46:06;;;;;;;10.63;3.55;;;;;;;25.56;49.20;98989.03;7551144;33;39191;-74
2023/09/22 07:50:23;;;;;;;8.35;4.00;;;;;;;25.77;48.83;98986.34;7550423;33;38431;-79
2023/09/22 07:54:40;;;;;;;12.25;2.97;;;;;;;25.63;48.50;98983.47;7552870;33;39421;-80
2023/09/22 07:58:58;;;;;;;8.45;3.08;;;;;;;26.14;47.54;98974.06;7553515;33;40187;-81
2023/09/22 08:03:28;;;;;;;10.18;3.03;;;;;;;25.95;47.59;98980.03;7552754;33;38080;-80
2023/09/22 08:07:47;;;;;;;14.50;3.00;;;;;;;25.88;46.73;98982.78;7552861;33;36932;-80
2023/09/22 08:12:05;;;;;;;8.60;3.08;;;;;;;26.14;45.30;98979.66;7552783;33;39157;-78
2023/09/22 08:16:21;;;;;;;9.93;2.83;;;;;;;26.13;44.31;98992.03;7552268;33;40696;-80
2023/09/22 08:20:39;;;;;;;10.38;2.72;;;;;;;26.12;44.61;98984.84;7552248;33;38060;-80
2023/09/22 08:24:55;;;;;;;13.07;3.30;;;;;;;26.25;45.09;98993.66;7552580;33;36983;-80
2023/09/22 08:29:12;;;;;;;9.27;2.87;;;;;;;26.24;43.91;98997.63;7552724;33;39288;-80
2023/09/22 08:33:29;;;;;;;13.00;3.25;;;;;;;26.22;43.96;98998.03;7552425;33;40886;-81
2023/09/22 08:37:47;;;;;;;8.93;2.53;;;;;;;25.98;43.69;99001.59;7551029;33;37990;-81
2023/09/22 08:42:04;;;;;;;11.15;3.40;;;;;;;26.02;44.29;98999.59;7539003;33;37219;-81
2023/09/22 08:46:20;;;;;;;9.48;2.97;;;;;;;26.48;43.76;98992.47;7552005;33;40212;-84
2023/09/22 08:50:37;;;;;;;7.60;2.50;;;;;;;26.34;43.57;98998.84;7539266;33;40781;-80
2023/09/22 08:54:54;;;;;;;11.07;3.03;;;;;;;26.38;43.14;99000.44;7551295;33;38020;-77
2023/09/22 08:59:11;;;;;;;7.00;2.60;;;;;;;26.31;43.77;98994.06;7555145;33;37144;-80
2023/09/22 09:03:27;;;;;;;10.80;3.72;;;;;;;26.54;42.87;98988.84;7555277;33;39507;-81
2023/09/22 09:07:44;;;;;;;12.85;3.15;;;;;;;26.32;43.26;98995.63;7555065;33;40845;-81
2023/09/22 09:12:05;;;;;;;21.17;3.25;;;;;;;26.52;43.12;98996.06;7555467;33;38154;-80
2023/09/22 09:16:32;;;;;;;13.25;2.80;;;;;;;26.34;43.77;99001.66;7541662;33;36996;-80
2023/09/22 09:21:09;;;;;;;14.32;3.28;;;;;;;26.86;42.96;98987.28;7554452;33;38380;-80
2023/09/22 09:25:29;;;;;;;15.88;2.72;;;;;;;26.78;43.16;98992.06;7542478;33;39943;-80
2023/09/22 09:29:46;;;;;;;14.50;3.10;;;;;;;26.71;42.42;98986.50;7550049;33;38505;-79
2023/09/22 09:34:03;;;;;;;16.37;3.28;;;;;;;26.95;42.40;98985.66;7554874;33;37125;-82
2023/09/22 09:38:20;;;;;;;10.40;2.67;;;;;;;26.71;42.71;98981.69;7555469;33;40288;-82
2023/09/22 09:42:41;;;;;;;9.88;2.97;;;;;;;26.31;42.63;98991.25;7555353;33;39953;-82
2023/09/22 09:46:59;;;;;;;8.65;3.03;;;;;;;26.24;43.65;98984.47;7555419;33;37906;-84
2023/09/22 09:51:19;;;;;;;9.00;2.90;;;;;;;26.42;43.23;98989.25;7554187;33;37418;-81
2023/09/22 09:55:36;;;;;;;12.00;2.87;;;;;;;25.81;44.47;98992.72;7555381;33;39450;-81
2023/09/22 09:59:53;;;;;;;13.70;2.87;;;;;;;25.91;44.49;98982.00;7553949;33;40880;-81
2023/09/22 10:04:10;;;;;;;7.97;3.08;;;;;;;25.92;44.55;98970.41;7554866;33;38153;-80
2023/09/22 10:08:28;;;;;;;10.88;3.17;;;;;;;25.67;45.37;98981.50;7553068;33;37986;-82
2023/09/22 10:12:44;;;;;;;12.23;3.03;;;;;;;25.58;45.41;98984.69;7555352;33;39422;-82
2023/09/22 10:17:01;;;;;;;13.35;3.58;;;;;;;25.67;45.39;98973.16;7553352;33;40842;-82
2023/09/22 10:21:34;;;;;;;8.00;2.72;;;;;;;25.73;44.82;98963.19;7554890;33;37739;-82
2023/09/22 10:26:14;;;;;;;11.27;2.92;;;;;;;25.84;44.65;98968.81;7555193;33;37930;-82
2023/09/22 10:30:46;;;;;;;6.28;2.62;;;;;;;25.95;44.28;98974.44;7541686;33;39296;-82
2023/09/22 10:35:06;;;;;;;15.45;3.40;;;;;;;25.94;44.17;98961.62;7554895;33;40918;-84
2023/09/22 10:39:23;;;;;;;10.68;3.30;;;;;;;25.98;44.36;98954.13;7554266;33;37879;-84
2023/09/22 10:43:56;;;;;;;16.12;3.78;;;;;;;25.91;44.47;98962.44;7554555;33;37910;-83
2023/09/22 10:48:13;;;;;;;15.15;3.05;;;;;;;26.00;44.54;98952.50;7546902;33;39019;-82
2023/09/22 10:52:29;;;;;;;13.07;2.95;;;;;;;26.08;44.28;98958.09;7543675;33;41302;-81
2023/09/22 10:56:45;;;;;;;11.85;3.37;;;;;;;26.48;43.58;98956.94;7554550;33;37898;-81
2023/09/22 11:01:08;;;;;;;15.23;2.70;;;;;;;26.61;43.66;98944.16;7554264;33;37135;-81
2023/09/22 11:05:25;;;;;;;9.73;3.35;;;;;;;26.42;43.19;98931.41;7528828;33;37943;-81
2023/09/22 11:09:43;;;;;;;12.75;2.67;;;;;;;26.78;43.08;98934.16;7528925;33;40043;-81
2023/09/22 11:14:00;;;;;;;12.70;3.12;;;;;;;27.39;41.38;98936.03;7528780;33;38533;-80
2023/09/22 11:18:21;;;;;;;11.35;2.90;;;;;;;27.39;40.81;98924.00;7528561;33;37192;-81
2023/09/22 11:22:39;;;;;;;10.55;2.67;;;;;;;27.76;40.52;98931.81;7545033;33;39402;-80
2023/09/22 11:27:03;;;;;;;15.23;3.28;;;;;;;27.64;40.80;98921.88;7562074;33;39726;-81
2023/09/22 11:31:20;;;;;;;8.48;2.97;;;;;;;27.80;41.24;98907.38;7540240;33;37887;-81
2023/09/22 11:35:41;;;;;;;12.52;3.62;;;;;;;28.16;41.17;98914.78;7540805;33;38014;-81
2023/09/22 11:39:58;;;;;;;11.18;3.62;;;;;;;28.79;40.48;98915.44;7554106;33;39358;-81
2023/09/22 11:44:15;;;;;;;12.88;2.92;;;;;;;29.53;39.12;98908.56;7553964;33;40005;-82
2023/09/22 11:48:31;;;;;;;10.77;2.95;;;;;;;29.70;38.89;98901.91;7553917;33;37660;-81
2023/09/22 11:52:48;;;;;;;11.50;3.25;;;;;;;30.03;36.57;98901.44;7553907;33;37647;-78
2023/09/22 11:57:05;;;;;;;12.55;3.42;;;;;;;30.89;35.43;98897.13;7553631;33;39424;-79
2023/09/22 12:01:21;;;;;;;10.10;3.10;;;;;;;31.26;33.42;98900.84;7553577;33;39633;-80
2023/09/22 12:05:38;;;;;;;11.55;2.62;;;;;;;30.93;33.69;98883.00;7553242;33;37994;-80
2023/09/22 12:09:55;;;;;;;9.63;2.47;;;;;;;30.73;33.27;98897.06;7553529;33;37911;-80
2023/09/22 12:14:11;;;;;;;11.00;2.65;;;;;;;30.96;32.83;98890.59;7553332;33;39994;-80
2023/09/22 12:18:28;;;;;;;13.50;2.92;;;;;;;31.29;32.66;98897.19;7552073;33;40895;-80
2023/09/22 12:22:44;;;;;;;6.47;2.37;;;;;;;31.04;32.01;98898.47;7553030;33;38610;-80
2023/09/22 12:27:03;;;;;;;7.72;2.55;;;;;;;30.15;31.83;98914.91;7553025;33;37040;-78
2023/09/22 12:31:19;;;;;;;11.10;2.67;;;;;;;29.18;33.11;98921.81;7554812;33;38665;-81
2023/09/22 12:35:38;;;;;;;8.27;2.40;;;;;;;29.36;33.21;98902.75;7556189;33;40908;-80
2023/09/22 12:39:54;;;;;;;12.00;2.70;;;;;;;29.03;33.61;98912.78;7556299;33;37034;-81
2023/09/22 12:44:11;;;;;;;11.88;2.80;;;;;;;29.69;33.20;98905.91;7555972;33;37107;-81
2023/09/22 12:48:29;;;;;;;14.20;3.95;;;;;;;30.17;32.67;98904.03;7556206;33;39531;-81
2023/09/22 12:52:46;;;;;;;13.02;3.15;;;;;;;29.93;31.88;98908.81;7556007;33;40827;-81
2023/09/22 12:57:04;;;;;;;9.30;2.78;;;;;;;29.78;31.72;98909.00;7555745;33;37893;-81
2023/09/22 13:01:35;;;;;;;15.35;3.20;;;;;;;30.67;31.65;98897.56;7555809;33;35904;-81
2023/09/22 13:06:12;;;;;;;10.25;2.70;;;;;;;31.05;30.56;98891.62;7555591;33;39349;-82
2023/09/22 13:10:41;;;;;;;14.43;2.80;;;;;;;31.13;30.75;98889.44;7555720;33;39647;-81
2023/09/22 13:14:59;;;;;;;10.50;2.55;;;;;;;31.20;30.69;98892.12;7555613;33;37924;-81
2023/09/22 13:19:17;;;;;;;12.32;2.40;;;;;;;31.08;30.22;98890.75;7555583;33;35623;-81
2023/09/22 13:23:34;;;;;;;11.50;2.87;;;;;;;30.74;29.88;98888.19;7555546;33;40643;-81
2023/09/22 13:27:51;;;;;;;10.55;2.60;;;;;;;30.81;29.50;98892.88;7555535;33;39744;-81
2023/09/22 13:32:09;;;;;;;5.03;2.10;;;;;;;30.19;30.57;98881.91;7555389;33;37641;-81
2023/09/22 13:36:26;;;;;;;12.82;2.17;;;;;;;31.36;28.71;98871.69;7555469;33;37603;-82
2023/09/22 13:40:46;;;;;;;12.32;2.25;;;;;;;31.64;27.24;98880.75;7555277;33;39363;-80
2023/09/22 13:45:05;;;;;;;8.32;2.30;;;;;;;31.94;27.24;98871.19;7576303;33;39869;-78
2023/09/22 13:49:22;;;;;;;12.55;2.80;;;;;;;32.47;26.42;98882.34;7580482;33;36824;-79
2023/09/22 13:53:41;;;;;;;10.05;2.62;;;;;;;31.40;27.86;98869.56;7580360;33;37973;-79
2023/09/22 13:58:00;;;;;;;10.20;2.55;;;;;;;31.43;28.73;98882.78;7579287;33;39818;-79
2023/09/22 14:02:17;;;;;;;9.15;2.75;;;;;;;30.85;29.10;98876.72;7580711;33;40060;-79
2023/09/22 14:06:36;;;;;;;14.18;3.22;;;;;;;31.10;28.57;98865.00;7580105;33;38800;-79
2023/09/22 14:10:59;;;;;;;13.32;2.60;;;;;;;31.61;28.48;98859.06;7580648;33;38066;-78
2023/09/22 14:15:19;;;;;;;9.75;2.22;;;;;;;31.30;28.32;98862.16;7579957;33;39960;-80
2023/09/22 14:19:36;;;;;;;11.18;2.40;;;;;;;30.80;28.89;98868.78;7580251;33;40781;-78
2023/09/22 14:23:53;;;;;;;11.00;3.33;;;;;;;30.68;29.28;98848.53;7579933;33;38766;-78
2023/09/22 14:28:11;;;;;;;10.52;2.53;;;;;;;30.29;30.43;98852.03;7580271;33;37511;-79
2023/09/22 14:32:28;;;;;;;9.35;2.60;;;;;;;29.61;31.85;98858.72;7580393;33;39418;-79
2023/09/22 14:36:45;;;;;;;12.68;3.08;;;;;;;30.04;31.45;98858.06;7579797;33;40750;-79
2023/09/22 14:41:05;;;;;;;8.63;2.17;;;;;;;30.39;31.36;98855.88;7580058;33;37964;-79
2023/09/22 14:45:23;;;;;;;9.68;2.72;;;;;;;30.92;30.42;98848.44;7578820;33;37175;-79
2023/09/22 14:49:44;;;;;;;8.13;2.37;;;;;;;30.95;31.31;98858.88;7578999;33;39392;-79
2023/09/22 14:54:01;;;;;;;7.77;2.20;;;;;;;29.97;28.88;98864.59;7579661;33;40010;-79
2023/09/22 14:58:19;;;;;;;10.18;2.58;;;;;;;29.91;29.72;98858.66;7579540;33;38452;-79
2023/09/22 15:02:35;;;;;;;6.97;2.75;;;;;;;29.60;30.67;98855.13;7579805;33;37939;-79
2023/09/22 15:06:53;;;;;;;9.73;2.92;;;;;;;30.48;30.54;98856.94;7579880;33;39484;-78
2023/09/22 15:11:11;;;;;;;9.43;2.37;;;;;;;30.63;30.11;98859.47;7579862;33;39019;-79
2023/09/22 15:15:29;;;;;;;9.05;2.35;;;;;;;30.44;30.78;98861.00;7579626;33;36862;-79
2023/09/22 15:19:50;;;;;;;6.43;2.22;;;;;;;30.24;31.28;98863.75;7579603;33;37038;-78
2023/09/22 15:24:09;;;;;;;9.32;2.53;;;;;;;30.20;31.29;98866.63;7566565;33;39328;-78
2023/09/22 15:28:26;;;;;;;10.98;2.33;;;;;;;29.53;32.29;98869.25;7579158;33;40732;-78
2023/09/22 15:32:42;;;;;;;12.63;2.67;;;;;;;29.62;32.23;98885.59;7578989;33;38754;-78
2023/09/22 15:36:59;;;;;;;13.30;2.65;;;;;;;29.57;32.00;98890.44;7579346;33;37283;-77
2023/09/22 15:41:16;;;;;;;13.00;3.65;;;;;;;29.34;32.33;98879.94;7579322;33;40157;-78
2023/09/22 15:45:33;;;;;;;12.55;3.45;;;;;;;29.19;32.69;98887.75;7579105;33;40825;-79
2023/09/22 15:49:51;;;;;;;15.07;3.53;;;;;;;29.28;32.67;98892.03;7578529;33;37733;-79
2023/09/22 15:54:09;;;;;;;11.15;3.92;;;;;;;29.27;33.05;98893.25;7579142;33;37462;-80
2023/09/22 15:58:27;;;;;;;12.73;3.28;;;;;;;29.39;32.95;98895.53;7578670;33;40271;-80
2023/09/22 16:02:44;;;;;;;7.93;2.58;;;;;;;29.21;33.33;98902.13;7577623;33;39063;-80
2023/09/22 16:07:02;;;;;;;12.65;2.60;;;;;;;28.92;33.39;98920.50;7576520;33;37955;-80
2023/09/22 16:11:19;;;;;;;9.00;2.55;;;;;;;28.87;33.67;98912.53;7578791;33;37914;-80
2023/09/22 16:15:36;;;;;;;10.85;2.70;;;;;;;28.46;34.62;98923.31;7579021;33;39144;-80
2023/09/22 16:19:54;;;;;;;11.43;2.80;;;;;;;28.23;35.16;98937.12;7578140;33;39762;-81
2023/09/22 16:24:11;;;;;;;7.68;2.53;;;;;;;28.27;35.16;98929.50;7578485;33;37154;-80
2023/09/22 16:28:27;;;;;;;9.95;2.70;;;;;;;28.24;34.66;98935.94;7578339;33;37085;-80
2023/09/22 16:32:45;;;;;;;5.78;2.33;;;;;;;27.85;35.22;98934.94;7578119;33;39523;-80
2023/09/22 16:37:05;;;;;;;8.73;2.50;;;;;;;27.76;34.93;98939.44;7578577;33;39677;-80
2023/09/22 16:41:22;;;;;;;14.38;2.60;;;;;;;27.95;34.96;98938.94;7577913;33;37641;-80
2023/09/22 16:45:38;;;;;;;8.27;2.35;;;;;;;27.91;35.00;98950.16;7578164;33;38007;-80
2023/09/22 16:49:55;;;;;;;7.68;3.22;;;;;;;27.98;34.51;98940.91;7577727;33;39371;-80
2023/09/22 16:54:15;;;;;;;9.35;2.65;;;;;;;27.87;34.93;98954.16;7577633;33;39744;-80
2023/09/22 16:58:32;;;;;;;6.30;2.33;;;;;;;27.88;34.67;98956.53;7567272;33;38591;-79
2023/09/22 17:02:53;;;;;;;6.15;2.33;;;;;;;27.93;34.60;98957.37;7551491;33;37109;-80
2023/09/22 17:07:10;;;;;;;5.95;2.22;;;;;;;27.96;34.59;98960.12;7552128;33;39529;-80
2023/09/22 17:11:31;;;;;;;7.60;2.53;;;;;;;28.09;34.47;98958.44;7551014;33;40070;-79
2023/09/22 17:15:48;;;;;;;9.18;2.70;;;;;;;28.13;34.39;98950.03;7551660;33;37969;-78
2023/09/22 17:20:06;;;;;;;7.68;2.53;;;;;;;28.08;34.28;98956.84;7555291;33;37561;-78
2023/09/22 17:24:23;;;;;;;10.00;2.60;;;;;;;28.19;34.20;98955.97;7554082;33;40203;-79
2023/09/22 17:28:40;;;;;;;8.70;2.80;;;;;;;28.24;34.24;98955.53;7554917;33;40656;-80
2023/09/22 17:32:56;;;;;;;8.68;2.75;;;;;;;28.29;34.53;98957.91;7553577;33;38076;-79
2023/09/22 17:37:13;;;;;;;14.73;2.75;;;;;;;28.24;34.31;98963.94;7555024;33;37127;-78
2023/09/22 17:41:29;;;;;;;8.07;2.70;;;;;;;28.36;34.22;98968.28;7555477;33;39119;-79
2023/09/22 17:46:08;;;;;;;13.18;2.95;;;;;;;28.20;35.10;98971.56;7553762;33;40494;-79
2023/09/22 17:50:24;;;;;;;8.32;2.83;;;;;;;28.20;35.84;98977.16;7554061;33;38761;-79
2023/09/22 17:54:41;;;;;;;6.70;2.97;;;;;;;28.09;36.18;98989.25;7555296;33;37841;-75
2023/09/22 17:58:58;;;;;;;10.40;2.75;;;;;;;27.91;37.36;98988.53;7553181;33;40202;-79
2023/09/22 18:03:15;;;;;;;10.10;2.70;;;;;;;27.80;37.81;98979.41;7545400;33;40110;-81
2023/09/22 18:07:31;;;;;;;8.80;2.75;;;;;;;27.55;37.63;98977.53;7555172;33;37817;-82
2023/09/22 18:11:48;;;;;;;9.90;2.20;;;;;;;27.62;37.04;98974.69;7555153;33;36933;-81
2023/09/22 18:16:04;;;;;;;8.63;2.65;;;;;;;27.52;36.50;98981.13;7555040;33;39306;-80
2023/09/22 18:20:21;;;;;;;12.13;2.97;;;;;;;27.60;35.62;98962.31;7554662;33;39712;-81
2023/09/22 18:24:37;;;;;;;9.27;2.65;;;;;;;27.43;35.36;98964.00;7554931;33;38021;-80
2023/09/22 18:28:54;;;;;;;8.30;3.05;;;;;;;27.53;34.99;98960.34;7554079;33;36904;-80
2023/09/22 18:33:11;;;;;;;13.02;3.08;;;;;;;27.54;35.73;98959.13;7554983;33;40151;-80
2023/09/22 18:37:27;;;;;;;8.82;2.35;;;;;;;27.37;35.45;98955.19;7554972;33;39923;-79
2023/09/22 18:41:44;;;;;;;10.60;3.30;;;;;;;27.47;35.24;98956.37;7553677;33;38643;-79
2023/09/22 18:46:02;;;;;;;8.45;2.45;;;;;;;27.46;35.56;98941.56;7553814;33;37543;-80
2023/09/22 18:50:20;;;;;;;16.35;3.28;;;;;;;27.47;35.64;98945.16;7553841;33;39478;-80
2023/09/22 18:54:36;;;;;;;10.90;2.80;;;;;;;27.55;35.60;98949.53;7554292;33;40789;-80
2023/09/22 18:58:53;;;;;;;7.18;2.42;;;;;;;27.53;35.54;98960.34;7554506;33;37638;-80
2023/09/22 19:03:10;;;;;;;11.10;2.65;;;;;;;27.58;35.97;98959.09;7553956;33;37658;-80
2023/09/22 19:07:27;;;;;;;9.88;2.87;;;;;;;27.37;36.27;98965.59;7553611;33;39352;-80
2023/09/22 19:11:45;;;;;;;9.05;2.45;;;;;;;27.30;36.54;98967.25;7553515;33;40876;-79
2023/09/22 19:16:03;;;;;;;6.00;2.33;;;;;;;27.28;36.28;98963.22;7551806;33;38437;-80
2023/09/22 19:20:28;;;;;;;9.68;2.50;;;;;;;27.25;36.44;98976.00;7552313;33;37773;-80
2023/09/22 19:24:45;;;;;;;10.05;2.47;;;;;;;27.10;36.62;98974.47;7552050;33;39317;-80
2023/09/22 19:29:01;;;;;;;12.00;2.87;;;;;;;27.04;36.88;98976.06;7553353;33;40935;-79
2023/09/22 19:33:20;;;;;;;11.50;2.72;;;;;;;27.20;36.64;98972.81;7549837;33;38777;-79
2023/09/22 19:37:37;;;;;;;7.25;2.70;;;;;;;27.06;36.95;98968.06;7551394;33;36911;-79
2023/09/22 19:41:54;;;;;;;14.98;3.70;;;;;;;26.91;37.40;98965.31;7551650;33;40138;-79
2023/09/22 19:46:17;;;;;;;8.10;4.03;;;;;;;26.27;40.97;98968.09;7553010;33;40059;-80
2023/09/22 19:50:35;;;;;;;12.30;4.03;;;;;;;26.31;42.55;98964.13;7553062;33;37730;-80
2023/09/22 19:54:52;;;;;;;9.02;2.75;;;;;;;26.23;41.58;98968.91;7553011;33;36150;-79
2023/09/22 19:59:09;;;;;;;12.35;3.28;;;;;;;26.12;40.64;98965.28;7543281;33;320901;-80
2023/09/22 20:03:26;;;;;;;11.32;3.08;;;;;;;26.01;40.38;98962.50;7553514;33;40597;-79
2023/09/22 20:07:42;;;;;;;9.35;2.60;;;;;;;25.94;40.92;98956.91;7552957;33;38806;-81